Webcam Richtung Westen

Webcam27

Webcam Richtung Norden

Webcam36

Webcam Richtung Osten

Webcam09

Wetter(Würzburg):
180300Z AUTO 01002G03KT 2900 +DZ OVC004 12/11 Q1008
		
Sat 18.05.2024, 03:00 UTC

Sichtweite bis zu 2900 m
starker Sprühregen
Wind aus 10° mit 02kt, in Böen bis zu 03kt
bedeckter Himmel (8 Achtel) bei 400 Fuß
Temperatur: 12 °C
Taupunkt: 11 °C
QNH: 1008 hPa
                         Heute        Morgen
                         18.05        19.05
--------------------------------------------
Beginn der Dämmerung     02:51        02:50
Sonnenaufgang            03:31        03:30
Sonnenuntergang          19:02        19:04
Ende der Dämmerung       19:42        19:44

Alle Zeiten in UTC